sensor_id;sensor_type;location;lat;lon;timestamp;P1;durP1;ratioP1;P2;durP2;ratioP2
23868;SDS011;12115;47.128;15.422;2022-07-23T00:01:40;6.72;;;5.85;;
23868;SDS011;12115;47.128;15.422;2022-07-23T00:04:07;8.68;;;5.55;;
23868;SDS011;12115;47.128;15.422;2022-07-23T00:06:34;6.97;;;5.90;;
23868;SDS011;12115;47.128;15.422;2022-07-23T00:09:02;9.32;;;5.97;;
23868;SDS011;12115;47.128;15.422;2022-07-23T00:11:29;8.65;;;6.57;;
23868;SDS011;12115;47.128;15.422;2022-07-23T00:13:57;6.50;;;5.82;;
23868;SDS011;12115;47.128;15.422;2022-07-23T00:16:24;8.15;;;5.32;;
23868;SDS011;12115;47.128;15.422;2022-07-23T00:18:51;6.57;;;5.88;;
23868;SDS011;12115;47.128;15.422;2022-07-23T00:21:18;7.03;;;5.82;;
23868;SDS011;12115;47.128;15.422;2022-07-23T00:23:45;7.82;;;5.65;;
23868;SDS011;12115;47.128;15.422;2022-07-23T00:26:12;7.50;;;5.80;;
23868;SDS011;12115;47.128;15.422;2022-07-23T00:28:39;8.43;;;6.10;;
23868;SDS011;12115;47.128;15.422;2022-07-23T00:31:06;6.85;;;6.20;;
23868;SDS011;12115;47.128;15.422;2022-07-23T00:33:34;8.52;;;6.35;;
23868;SDS011;12115;47.128;15.422;2022-07-23T00:36:01;6.85;;;6.15;;
23868;SDS011;12115;47.128;15.422;2022-07-23T00:38:28;8.85;;;6.13;;
23868;SDS011;12115;47.128;15.422;2022-07-23T00:40:55;7.05;;;6.35;;
23868;SDS011;12115;47.128;15.422;2022-07-23T00:43:23;7.00;;;6.18;;
23868;SDS011;12115;47.128;15.422;2022-07-23T00:45:50;6.38;;;5.47;;
23868;SDS011;12115;47.128;15.422;2022-07-23T00:48:17;11.02;;;6.80;;
23868;SDS011;12115;47.128;15.422;2022-07-23T00:50:44;7.97;;;6.13;;
23868;SDS011;12115;47.128;15.422;2022-07-23T00:53:12;9.23;;;6.53;;
23868;SDS011;12115;47.128;15.422;2022-07-23T00:55:39;7.20;;;6.18;;
23868;SDS011;12115;47.128;15.422;2022-07-23T00:58:06;6.78;;;6.05;;
23868;SDS011;12115;47.128;15.422;2022-07-23T01:00:34;7.68;;;5.70;;
23868;SDS011;12115;47.128;15.422;2022-07-23T01:03:01;6.63;;;5.60;;
23868;SDS011;12115;47.128;15.422;2022-07-23T01:05:28;7.05;;;5.97;;
23868;SDS011;12115;47.128;15.422;2022-07-23T01:07:55;8.52;;;6.00;;
23868;SDS011;12115;47.128;15.422;2022-07-23T01:10:23;7.30;;;6.60;;
23868;SDS011;12115;47.128;15.422;2022-07-23T01:12:58;7.10;;;6.43;;
23868;SDS011;12115;47.128;15.422;2022-07-23T01:15:30;6.47;;;5.88;;
23868;SDS011;12115;47.128;15.422;2022-07-23T01:17:58;10.52;;;6.13;;
23868;SDS011;12115;47.128;15.422;2022-07-23T01:20:26;6.60;;;6.00;;
23868;SDS011;12115;47.128;15.422;2022-07-23T01:22:54;6.50;;;5.90;;
23868;SDS011;12115;47.128;15.422;2022-07-23T01:25:22;8.15;;;5.70;;
23868;SDS011;12115;47.128;15.422;2022-07-23T01:27:54;7.10;;;5.80;;
23868;SDS011;12115;47.128;15.422;2022-07-23T01:30:22;10.07;;;6.97;;
23868;SDS011;12115;47.128;15.422;2022-07-23T01:32:50;10.15;;;6.38;;
23868;SDS011;12115;47.128;15.422;2022-07-23T01:35:18;7.97;;;6.25;;
23868;SDS011;12115;47.128;15.422;2022-07-23T01:37:46;8.82;;;6.15;;
23868;SDS011;12115;47.128;15.422;2022-07-23T01:40:13;7.88;;;6.65;;
23868;SDS011;12115;47.128;15.422;2022-07-23T01:42:41;7.15;;;6.45;;
23868;SDS011;12115;47.128;15.422;2022-07-23T01:45:10;7.38;;;6.43;;
23868;SDS011;12115;47.128;15.422;2022-07-23T01:47:42;7.70;;;7.00;;
23868;SDS011;12115;47.128;15.422;2022-07-23T01:50:09;6.70;;;5.97;;
23868;SDS011;12115;47.128;15.422;2022-07-23T01:52:38;7.47;;;6.20;;
23868;SDS011;12115;47.128;15.422;2022-07-23T01:55:06;7.35;;;6.57;;
23868;SDS011;12115;47.128;15.422;2022-07-23T01:57:34;6.40;;;5.80;;
23868;SDS011;12115;47.128;15.422;2022-07-23T02:00:01;6.22;;;5.60;;
23868;SDS011;12115;47.128;15.422;2022-07-23T02:02:38;8.18;;;6.15;;
23868;SDS011;12115;47.128;15.422;2022-07-23T02:05:05;8.65;;;6.53;;
23868;SDS011;12115;47.128;15.422;2022-07-23T02:07:33;6.05;;;5.45;;
23868;SDS011;12115;47.128;15.422;2022-07-23T02:10:01;6.68;;;6.07;;
23868;SDS011;12115;47.128;15.422;2022-07-23T02:12:28;6.75;;;5.25;;
23868;SDS011;12115;47.128;15.422;2022-07-23T02:14:55;9.57;;;6.38;;
23868;SDS011;12115;47.128;15.422;2022-07-23T02:17:24;6.93;;;5.90;;
23868;SDS011;12115;47.128;15.422;2022-07-23T02:19:51;7.85;;;6.50;;
23868;SDS011;12115;47.128;15.422;2022-07-23T02:22:18;6.95;;;6.25;;
23868;SDS011;12115;47.128;15.422;2022-07-23T02:24:48;7.60;;;6.30;;
23868;SDS011;12115;47.128;15.422;2022-07-23T02:27:15;7.22;;;6.45;;
23868;SDS011;12115;47.128;15.422;2022-07-23T02:29:42;7.90;;;6.50;;
23868;SDS011;12115;47.128;15.422;2022-07-23T02:32:09;7.60;;;6.90;;
23868;SDS011;12115;47.128;15.422;2022-07-23T02:34:36;8.65;;;6.40;;
23868;SDS011;12115;47.128;15.422;2022-07-23T02:37:04;9.25;;;6.50;;
23868;SDS011;12115;47.128;15.422;2022-07-23T02:39:31;7.13;;;6.43;;
23868;SDS011;12115;47.128;15.422;2022-07-23T02:41:58;7.72;;;6.93;;
23868;SDS011;12115;47.128;15.422;2022-07-23T02:44:25;7.60;;;6.38;;
23868;SDS011;12115;47.128;15.422;2022-07-23T02:46:53;9.15;;;7.28;;
23868;SDS011;12115;47.128;15.422;2022-07-23T02:49:20;9.43;;;7.07;;
23868;SDS011;12115;47.128;15.422;2022-07-23T02:51:49;8.30;;;6.25;;
23868;SDS011;12115;47.128;15.422;2022-07-23T02:54:17;9.98;;;7.03;;
23868;SDS011;12115;47.128;15.422;2022-07-23T02:56:44;8.40;;;6.85;;
23868;SDS011;12115;47.128;15.422;2022-07-23T02:59:11;7.80;;;6.68;;
23868;SDS011;12115;47.128;15.422;2022-07-23T03:01:38;10.07;;;7.03;;
23868;SDS011;12115;47.128;15.422;2022-07-23T03:04:06;8.38;;;7.07;;
23868;SDS011;12115;47.128;15.422;2022-07-23T03:06:33;7.20;;;6.50;;
23868;SDS011;12115;47.128;15.422;2022-07-23T03:09:00;6.60;;;5.97;;
23868;SDS011;12115;47.128;15.422;2022-07-23T03:11:28;7.22;;;6.10;;
23868;SDS011;12115;47.128;15.422;2022-07-23T03:13:56;7.65;;;6.40;;
23868;SDS011;12115;47.128;15.422;2022-07-23T03:16:23;7.35;;;6.55;;
23868;SDS011;12115;47.128;15.422;2022-07-23T03:18:50;8.90;;;6.85;;
23868;SDS011;12115;47.128;15.422;2022-07-23T03:21:17;7.00;;;6.28;;
23868;SDS011;12115;47.128;15.422;2022-07-23T03:23:44;9.02;;;6.00;;
23868;SDS011;12115;47.128;15.422;2022-07-23T03:26:11;6.93;;;6.28;;
23868;SDS011;12115;47.128;15.422;2022-07-23T03:28:38;6.97;;;6.25;;
23868;SDS011;12115;47.128;15.422;2022-07-23T03:31:05;9.50;;;6.85;;
23868;SDS011;12115;47.128;15.422;2022-07-23T03:33:33;9.07;;;6.90;;
23868;SDS011;12115;47.128;15.422;2022-07-23T03:36:00;8.50;;;7.05;;
23868;SDS011;12115;47.128;15.422;2022-07-23T03:38:33;9.00;;;6.90;;
23868;SDS011;12115;47.128;15.422;2022-07-23T03:41:00;8.52;;;7.70;;
23868;SDS011;12115;47.128;15.422;2022-07-23T03:43:28;8.73;;;7.10;;
23868;SDS011;12115;47.128;15.422;2022-07-23T03:45:55;8.10;;;7.30;;
23868;SDS011;12115;47.128;15.422;2022-07-23T03:48:22;8.05;;;7.32;;
23868;SDS011;12115;47.128;15.422;2022-07-23T03:50:49;8.65;;;7.00;;
23868;SDS011;12115;47.128;15.422;2022-07-23T03:53:16;8.55;;;7.40;;
23868;SDS011;12115;47.128;15.422;2022-07-23T03:55:45;8.45;;;6.95;;
23868;SDS011;12115;47.128;15.422;2022-07-23T03:58:12;8.90;;;7.53;;
23868;SDS011;12115;47.128;15.422;2022-07-23T04:00:42;9.80;;;7.20;;
23868;SDS011;12115;47.128;15.422;2022-07-23T04:03:09;8.63;;;7.82;;
23868;SDS011;12115;47.128;15.422;2022-07-23T04:05:37;8.70;;;7.53;;
23868;SDS011;12115;47.128;15.422;2022-07-23T04:08:06;8.82;;;7.55;;
23868;SDS011;12115;47.128;15.422;2022-07-23T04:10:37;8.32;;;7.18;;
23868;SDS011;12115;47.128;15.422;2022-07-23T04:13:05;8.68;;;7.72;;
23868;SDS011;12115;47.128;15.422;2022-07-23T04:15:33;8.57;;;7.55;;
23868;SDS011;12115;47.128;15.422;2022-07-23T04:18:00;8.45;;;7.55;;
23868;SDS011;12115;47.128;15.422;2022-07-23T04:20:37;8.40;;;7.55;;
23868;SDS011;12115;47.128;15.422;2022-07-23T04:23:06;8.80;;;8.00;;
23868;SDS011;12115;47.128;15.422;2022-07-23T04:25:34;9.00;;;7.97;;
23868;SDS011;12115;47.128;15.422;2022-07-23T04:28:01;8.40;;;7.70;;
23868;SDS011;12115;47.128;15.422;2022-07-23T04:30:28;9.82;;;8.13;;
23868;SDS011;12115;47.128;15.422;2022-07-23T04:32:55;9.32;;;8.38;;
23868;SDS011;12115;47.128;15.422;2022-07-23T04:35:26;8.05;;;7.35;;
23868;SDS011;12115;47.128;15.422;2022-07-23T04:38:01;8.73;;;7.88;;
23868;SDS011;12115;47.128;15.422;2022-07-23T04:40:28;8.02;;;6.95;;
23868;SDS011;12115;47.128;15.422;2022-07-23T04:42:56;10.45;;;7.82;;
23868;SDS011;12115;47.128;15.422;2022-07-23T04:45:24;9.35;;;8.35;;
23868;SDS011;12115;47.128;15.422;2022-07-23T04:47:51;9.00;;;7.72;;
23868;SDS011;12115;47.128;15.422;2022-07-23T04:50:18;9.43;;;7.65;;
23868;SDS011;12115;47.128;15.422;2022-07-23T04:52:51;9.60;;;7.72;;
23868;SDS011;12115;47.128;15.422;2022-07-23T04:55:18;10.32;;;7.75;;
23868;SDS011;12115;47.128;15.422;2022-07-23T04:57:45;9.77;;;8.55;;
23868;SDS011;12115;47.128;15.422;2022-07-23T05:00:12;9.40;;;8.50;;
23868;SDS011;12115;47.128;15.422;2022-07-23T05:02:39;11.18;;;7.47;;
23868;SDS011;12115;47.128;15.422;2022-07-23T05:05:06;9.02;;;7.32;;
23868;SDS011;12115;47.128;15.422;2022-07-23T05:07:34;9.68;;;8.63;;
23868;SDS011;12115;47.128;15.422;2022-07-23T05:10:01;8.93;;;8.02;;
23868;SDS011;12115;47.128;15.422;2022-07-23T05:12:29;8.48;;;7.13;;
23868;SDS011;12115;47.128;15.422;2022-07-23T05:14:56;9.15;;;7.70;;
23868;SDS011;12115;47.128;15.422;2022-07-23T05:17:24;8.52;;;7.63;;
23868;SDS011;12115;47.128;15.422;2022-07-23T05:19:51;8.25;;;6.68;;
23868;SDS011;12115;47.128;15.422;2022-07-23T05:22:25;11.55;;;8.05;;
23868;SDS011;12115;47.128;15.422;2022-07-23T05:24:53;8.85;;;7.40;;
23868;SDS011;12115;47.128;15.422;2022-07-23T05:27:20;7.13;;;6.45;;
23868;SDS011;12115;47.128;15.422;2022-07-23T05:29:47;8.35;;;7.63;;
23868;SDS011;12115;47.128;15.422;2022-07-23T05:32:14;10.70;;;9.55;;
23868;SDS011;12115;47.128;15.422;2022-07-23T05:34:48;11.18;;;8.60;;
23868;SDS011;12115;47.128;15.422;2022-07-23T05:37:15;10.48;;;8.55;;
23868;SDS011;12115;47.128;15.422;2022-07-23T05:39:43;9.10;;;8.20;;
23868;SDS011;12115;47.128;15.422;2022-07-23T05:42:10;9.85;;;8.95;;
23868;SDS011;12115;47.128;15.422;2022-07-23T05:44:38;9.68;;;8.63;;
23868;SDS011;12115;47.128;15.422;2022-07-23T05:47:05;8.63;;;7.78;;
23868;SDS011;12115;47.128;15.422;2022-07-23T05:49:32;11.02;;;8.80;;
23868;SDS011;12115;47.128;15.422;2022-07-23T05:52:15;8.48;;;7.53;;
23868;SDS011;12115;47.128;15.422;2022-07-23T05:55:06;10.77;;;8.20;;
23868;SDS011;12115;47.128;15.422;2022-07-23T05:57:34;8.98;;;7.88;;
23868;SDS011;12115;47.128;15.422;2022-07-23T06:00:05;10.45;;;8.55;;
23868;SDS011;12115;47.128;15.422;2022-07-23T06:02:39;10.38;;;9.30;;
23868;SDS011;12115;47.128;15.422;2022-07-23T06:05:08;12.63;;;9.48;;
23868;SDS011;12115;47.128;15.422;2022-07-23T06:07:37;11.25;;;9.13;;
23868;SDS011;12115;47.128;15.422;2022-07-23T06:10:04;9.20;;;8.30;;
23868;SDS011;12115;47.128;15.422;2022-07-23T06:12:32;10.55;;;9.35;;
23868;SDS011;12115;47.128;15.422;2022-07-23T06:14:59;9.70;;;8.77;;
23868;SDS011;12115;47.128;15.422;2022-07-23T06:17:26;9.00;;;8.20;;
23868;SDS011;12115;47.128;15.422;2022-07-23T06:19:54;9.45;;;8.45;;
23868;SDS011;12115;47.128;15.422;2022-07-23T06:22:21;10.63;;;8.60;;
23868;SDS011;12115;47.128;15.422;2022-07-23T06:24:49;9.27;;;8.02;;
23868;SDS011;12115;47.128;15.422;2022-07-23T06:27:19;9.60;;;8.60;;
23868;SDS011;12115;47.128;15.422;2022-07-23T06:29:52;10.20;;;8.35;;
23868;SDS011;12115;47.128;15.422;2022-07-23T06:32:19;10.50;;;8.30;;
23868;SDS011;12115;47.128;15.422;2022-07-23T06:34:47;11.52;;;8.63;;
23868;SDS011;12115;47.128;15.422;2022-07-23T06:37:14;9.68;;;8.73;;
23868;SDS011;12115;47.128;15.422;2022-07-23T06:39:45;10.25;;;8.07;;
23868;SDS011;12115;47.128;15.422;2022-07-23T06:42:12;10.68;;;8.73;;
23868;SDS011;12115;47.128;15.422;2022-07-23T06:44:44;9.90;;;8.85;;
23868;SDS011;12115;47.128;15.422;2022-07-23T06:47:15;9.80;;;8.80;;
23868;SDS011;12115;47.128;15.422;2022-07-23T06:49:42;10.18;;;9.10;;
23868;SDS011;12115;47.128;15.422;2022-07-23T06:52:09;10.05;;;8.95;;
23868;SDS011;12115;47.128;15.422;2022-07-23T06:54:36;9.93;;;8.63;;
23868;SDS011;12115;47.128;15.422;2022-07-23T06:57:03;9.60;;;8.70;;
23868;SDS011;12115;47.128;15.422;2022-07-23T06:59:30;10.30;;;9.02;;
23868;SDS011;12115;47.128;15.422;2022-07-23T07:01:58;9.15;;;8.35;;
23868;SDS011;12115;47.128;15.422;2022-07-23T07:04:25;9.63;;;8.70;;
23868;SDS011;12115;47.128;15.422;2022-07-23T07:06:52;12.20;;;8.38;;
23868;SDS011;12115;47.128;15.422;2022-07-23T07:09:19;9.05;;;8.15;;
23868;SDS011;12115;47.128;15.422;2022-07-23T07:11:46;8.57;;;7.78;;
23868;SDS011;12115;47.128;15.422;2022-07-23T07:14:13;13.38;;;7.85;;
23868;SDS011;12115;47.128;15.422;2022-07-23T07:16:40;8.07;;;7.28;;
23868;SDS011;12115;47.128;15.422;2022-07-23T07:19:07;7.68;;;6.88;;
23868;SDS011;12115;47.128;15.422;2022-07-23T07:21:34;7.50;;;5.35;;
23868;SDS011;12115;47.128;15.422;2022-07-23T07:24:01;6.72;;;5.55;;
23868;SDS011;12115;47.128;15.422;2022-07-23T07:26:29;5.93;;;5.18;;
23868;SDS011;12115;47.128;15.422;2022-07-23T07:28:57;5.97;;;5.13;;
23868;SDS011;12115;47.128;15.422;2022-07-23T07:31:25;6.20;;;5.43;;
23868;SDS011;12115;47.128;15.422;2022-07-23T07:33:52;5.78;;;5.28;;
23868;SDS011;12115;47.128;15.422;2022-07-23T07:36:19;4.95;;;4.55;;
23868;SDS011;12115;47.128;15.422;2022-07-23T07:38:46;9.75;;;4.97;;
23868;SDS011;12115;47.128;15.422;2022-07-23T07:41:14;6.07;;;4.38;;
23868;SDS011;12115;47.128;15.422;2022-07-23T07:43:42;6.03;;;4.32;;
23868;SDS011;12115;47.128;15.422;2022-07-23T07:46:09;4.95;;;4.35;;
23868;SDS011;12115;47.128;15.422;2022-07-23T07:48:37;4.22;;;3.67;;
23868;SDS011;12115;47.128;15.422;2022-07-23T07:51:04;4.15;;;3.75;;
23868;SDS011;12115;47.128;15.422;2022-07-23T07:53:32;3.88;;;3.53;;
23868;SDS011;12115;47.128;15.422;2022-07-23T07:55:59;5.43;;;3.60;;
23868;SDS011;12115;47.128;15.422;2022-07-23T07:58:26;4.63;;;4.00;;
23868;SDS011;12115;47.128;15.422;2022-07-23T08:00:54;5.63;;;4.00;;
23868;SDS011;12115;47.128;15.422;2022-07-23T08:03:21;7.47;;;3.70;;
23868;SDS011;12115;47.128;15.422;2022-07-23T08:05:48;4.35;;;4.05;;
23868;SDS011;12115;47.128;15.422;2022-07-23T08:08:15;4.95;;;3.30;;
23868;SDS011;12115;47.128;15.422;2022-07-23T08:10:42;3.97;;;3.55;;
23868;SDS011;12115;47.128;15.422;2022-07-23T08:13:12;5.22;;;3.63;;
23868;SDS011;12115;47.128;15.422;2022-07-23T08:15:41;3.80;;;3.50;;
23868;SDS011;12115;47.128;15.422;2022-07-23T08:18:09;3.65;;;3.17;;
23868;SDS011;12115;47.128;15.422;2022-07-23T08:20:37;3.67;;;3.38;;
23868;SDS011;12115;47.128;15.422;2022-07-23T08:23:04;3.88;;;3.47;;
23868;SDS011;12115;47.128;15.422;2022-07-23T08:25:37;5.63;;;3.80;;
23868;SDS011;12115;47.128;15.422;2022-07-23T08:28:06;5.03;;;3.47;;
23868;SDS011;12115;47.128;15.422;2022-07-23T08:30:35;4.22;;;3.83;;
23868;SDS011;12115;47.128;15.422;2022-07-23T08:33:07;4.75;;;3.70;;
23868;SDS011;12115;47.128;15.422;2022-07-23T08:36:00;5.35;;;3.45;;
23868;SDS011;12115;47.128;15.422;2022-07-23T08:38:30;4.28;;;3.55;;
23868;SDS011;12115;47.128;15.422;2022-07-23T08:40:58;3.85;;;3.55;;
23868;SDS011;12115;47.128;15.422;2022-07-23T08:43:26;3.80;;;3.40;;
23868;SDS011;12115;47.128;15.422;2022-07-23T08:45:56;3.55;;;3.20;;
23868;SDS011;12115;47.128;15.422;2022-07-23T08:48:27;4.97;;;3.40;;
23868;SDS011;12115;47.128;15.422;2022-07-23T08:50:57;4.13;;;3.55;;
23868;SDS011;12115;47.128;15.422;2022-07-23T08:53:27;5.88;;;4.05;;
23868;SDS011;12115;47.128;15.422;2022-07-23T08:55:56;4.88;;;4.18;;
23868;SDS011;12115;47.128;15.422;2022-07-23T08:58:25;5.15;;;3.80;;
23868;SDS011;12115;47.128;15.422;2022-07-23T09:00:54;4.10;;;3.70;;
23868;SDS011;12115;47.128;15.422;2022-07-23T09:03:29;4.18;;;3.78;;
23868;SDS011;12115;47.128;15.422;2022-07-23T09:06:01;4.07;;;3.70;;
23868;SDS011;12115;47.128;15.422;2022-07-23T09:08:35;5.93;;;3.88;;
23868;SDS011;12115;47.128;15.422;2022-07-23T09:11:10;4.05;;;3.65;;
23868;SDS011;12115;47.128;15.422;2022-07-23T09:18:57;3.53;;;3.22;;
23868;SDS011;12115;47.128;15.422;2022-07-23T09:21:26;4.05;;;3.40;;
23868;SDS011;12115;47.128;15.422;2022-07-23T09:24:03;6.57;;;3.58;;
23868;SDS011;12115;47.128;15.422;2022-07-23T09:29:08;6.72;;;3.30;;
23868;SDS011;12115;47.128;15.422;2022-07-23T09:36:49;3.47;;;3.03;;
23868;SDS011;12115;47.128;15.422;2022-07-23T09:39:52;3.33;;;3.10;;
23868;SDS011;12115;47.128;15.422;2022-07-23T09:42:20;6.28;;;3.20;;
23868;SDS011;12115;47.128;15.422;2022-07-23T09:44:49;3.53;;;3.22;;
23868;SDS011;12115;47.128;15.422;2022-07-23T09:47:17;3.65;;;3.25;;
23868;SDS011;12115;47.128;15.422;2022-07-23T09:52:37;3.13;;;2.83;;
23868;SDS011;12115;47.128;15.422;2022-07-23T09:55:10;3.00;;;2.80;;
23868;SDS011;12115;47.128;15.422;2022-07-23T09:57:38;3.05;;;2.85;;
23868;SDS011;12115;47.128;15.422;2022-07-23T10:00:08;3.00;;;2.67;;
23868;SDS011;12115;47.128;15.422;2022-07-23T10:02:37;3.58;;;2.67;;
23868;SDS011;12115;47.128;15.422;2022-07-23T10:05:44;3.20;;;2.75;;
23868;SDS011;12115;47.128;15.422;2022-07-23T10:08:34;2.65;;;2.45;;
23868;SDS011;12115;47.128;15.422;2022-07-23T10:11:31;3.10;;;2.90;;
23868;SDS011;12115;47.128;15.422;2022-07-23T10:14:25;4.38;;;2.70;;
23868;SDS011;12115;47.128;15.422;2022-07-23T10:16:58;3.65;;;2.78;;
23868;SDS011;12115;47.128;15.422;2022-07-23T10:19:26;5.00;;;2.90;;
23868;SDS011;12115;47.128;15.422;2022-07-23T10:22:01;4.30;;;2.90;;
23868;SDS011;12115;47.128;15.422;2022-07-23T10:24:36;3.33;;;3.03;;
23868;SDS011;12115;47.128;15.422;2022-07-23T10:41:32;4.32;;;3.17;;
23868;SDS011;12115;47.128;15.422;2022-07-23T10:44:12;3.05;;;2.75;;
23868;SDS011;12115;47.128;15.422;2022-07-23T10:49:39;3.72;;;3.42;;
23868;SDS011;12115;47.128;15.422;2022-07-23T10:52:28;3.70;;;3.33;;
23868;SDS011;12115;47.128;15.422;2022-07-23T10:57:27;4.30;;;3.67;;
23868;SDS011;12115;47.128;15.422;2022-07-23T11:02:35;2.90;;;2.70;;
23868;SDS011;12115;47.128;15.422;2022-07-23T11:05:04;5.20;;;3.40;;
23868;SDS011;12115;47.128;15.422;2022-07-23T11:07:36;5.13;;;3.53;;
23868;SDS011;12115;47.128;15.422;2022-07-23T11:10:33;4.57;;;3.15;;
23868;SDS011;12115;47.128;15.422;2022-07-23T11:18:52;4.20;;;3.80;;
23868;SDS011;12115;47.128;15.422;2022-07-23T11:24:11;4.32;;;3.92;;
23868;SDS011;12115;47.128;15.422;2022-07-23T11:37:06;4.32;;;3.55;;
23868;SDS011;12115;47.128;15.422;2022-07-23T11:39:35;3.80;;;3.40;;
23868;SDS011;12115;47.128;15.422;2022-07-23T11:42:03;5.40;;;4.30;;
23868;SDS011;12115;47.128;15.422;2022-07-23T11:44:33;5.25;;;3.80;;
23868;SDS011;12115;47.128;15.422;2022-07-23T11:47:02;4.60;;;4.20;;
23868;SDS011;12115;47.128;15.422;2022-07-23T11:49:31;4.20;;;3.90;;
23868;SDS011;12115;47.128;15.422;2022-07-23T11:52:09;4.95;;;3.97;;
23868;SDS011;12115;47.128;15.422;2022-07-23T11:57:16;4.40;;;4.00;;
23868;SDS011;12115;47.128;15.422;2022-07-23T11:59:45;4.05;;;3.65;;
23868;SDS011;12115;47.128;15.422;2022-07-23T12:02:15;3.67;;;3.08;;
23868;SDS011;12115;47.128;15.422;2022-07-23T12:04:47;5.07;;;3.50;;
23868;SDS011;12115;47.128;15.422;2022-07-23T12:07:22;5.13;;;3.85;;
23868;SDS011;12115;47.128;15.422;2022-07-23T12:10:15;5.88;;;3.85;;
23868;SDS011;12115;47.128;15.422;2022-07-23T12:12:50;3.78;;;3.47;;
23868;SDS011;12115;47.128;15.422;2022-07-23T12:15:29;3.83;;;3.53;;
23868;SDS011;12115;47.128;15.422;2022-07-23T12:18:02;3.63;;;3.30;;
23868;SDS011;12115;47.128;15.422;2022-07-23T12:20:33;4.80;;;3.28;;
23868;SDS011;12115;47.128;15.422;2022-07-23T12:23:08;3.33;;;3.03;;
23868;SDS011;12115;47.128;15.422;2022-07-23T12:25:40;3.00;;;2.80;;
23868;SDS011;12115;47.128;15.422;2022-07-23T12:28:09;4.63;;;3.30;;
23868;SDS011;12115;47.128;15.422;2022-07-23T12:33:21;3.70;;;3.40;;
23868;SDS011;12115;47.128;15.422;2022-07-23T12:35:49;3.97;;;3.42;;
23868;SDS011;12115;47.128;15.422;2022-07-23T12:38:17;3.63;;;3.33;;
23868;SDS011;12115;47.128;15.422;2022-07-23T12:40:50;4.40;;;3.60;;
23868;SDS011;12115;47.128;15.422;2022-07-23T12:48:34;4.00;;;3.60;;
23868;SDS011;12115;47.128;15.422;2022-07-23T12:51:47;4.95;;;3.70;;
23868;SDS011;12115;47.128;15.422;2022-07-23T12:54:03;3.85;;;3.45;;
23868;SDS011;12115;47.128;15.422;2022-07-23T12:56:33;4.70;;;4.25;;
23868;SDS011;12115;47.128;15.422;2022-07-23T13:01:31;4.78;;;4.28;;
23868;SDS011;12115;47.128;15.422;2022-07-23T13:04:06;4.22;;;3.80;;
23868;SDS011;12115;47.128;15.422;2022-07-23T13:06:43;4.35;;;3.50;;
23868;SDS011;12115;47.128;15.422;2022-07-23T13:09:15;5.53;;;3.70;;
23868;SDS011;12115;47.128;15.422;2022-07-23T13:11:44;5.13;;;3.70;;
23868;SDS011;12115;47.128;15.422;2022-07-23T13:14:13;5.28;;;3.50;;
23868;SDS011;12115;47.128;15.422;2022-07-23T13:16:41;3.40;;;3.10;;
23868;SDS011;12115;47.128;15.422;2022-07-23T13:19:09;4.57;;;3.60;;
23868;SDS011;12115;47.128;15.422;2022-07-23T13:21:38;5.38;;;3.72;;
23868;SDS011;12115;47.128;15.422;2022-07-23T13:24:06;4.00;;;3.70;;
23868;SDS011;12115;47.128;15.422;2022-07-23T13:26:35;4.05;;;3.45;;
23868;SDS011;12115;47.128;15.422;2022-07-23T13:29:03;4.07;;;3.67;;
23868;SDS011;12115;47.128;15.422;2022-07-23T13:31:36;4.10;;;3.70;;
23868;SDS011;12115;47.128;15.422;2022-07-23T13:34:05;4.03;;;3.63;;
23868;SDS011;12115;47.128;15.422;2022-07-23T13:36:33;3.20;;;2.90;;
23868;SDS011;12115;47.128;15.422;2022-07-23T13:39:04;3.50;;;3.20;;
23868;SDS011;12115;47.128;15.422;2022-07-23T13:41:32;4.03;;;3.67;;
23868;SDS011;12115;47.128;15.422;2022-07-23T13:43:59;4.00;;;3.60;;
23868;SDS011;12115;47.128;15.422;2022-07-23T13:46:26;3.85;;;3.53;;
23868;SDS011;12115;47.128;15.422;2022-07-23T13:48:53;5.00;;;3.47;;
23868;SDS011;12115;47.128;15.422;2022-07-23T13:51:20;3.50;;;3.20;;
23868;SDS011;12115;47.128;15.422;2022-07-23T13:53:51;3.78;;;3.47;;
23868;SDS011;12115;47.128;15.422;2022-07-23T13:56:18;3.47;;;3.13;;
23868;SDS011;12115;47.128;15.422;2022-07-23T13:58:46;4.10;;;3.60;;
23868;SDS011;12115;47.128;15.422;2022-07-23T14:01:14;3.72;;;3.25;;
23868;SDS011;12115;47.128;15.422;2022-07-23T14:03:43;4.07;;;3.63;;
23868;SDS011;12115;47.128;15.422;2022-07-23T14:06:11;3.97;;;3.25;;
23868;SDS011;12115;47.128;15.422;2022-07-23T14:08:45;4.50;;;4.05;;
23868;SDS011;12115;47.128;15.422;2022-07-23T14:13:40;21.08;;;13.30;;
23868;SDS011;12115;47.128;15.422;2022-07-23T14:16:07;47.65;;;33.83;;
23868;SDS011;12115;47.128;15.422;2022-07-23T14:18:34;15.85;;;13.77;;
23868;SDS011;12115;47.128;15.422;2022-07-23T14:21:03;4.68;;;3.95;;
23868;SDS011;12115;47.128;15.422;2022-07-23T14:23:32;3.92;;;3.38;;
23868;SDS011;12115;47.128;15.422;2022-07-23T14:26:00;3.40;;;3.03;;
23868;SDS011;12115;47.128;15.422;2022-07-23T14:28:31;3.67;;;3.38;;
23868;SDS011;12115;47.128;15.422;2022-07-23T14:31:01;3.30;;;3.00;;
23868;SDS011;12115;47.128;15.422;2022-07-23T14:33:28;4.10;;;3.17;;
23868;SDS011;12115;47.128;15.422;2022-07-23T14:35:56;5.25;;;3.33;;
23868;SDS011;12115;47.128;15.422;2022-07-23T14:38:26;3.50;;;3.20;;
23868;SDS011;12115;47.128;15.422;2022-07-23T14:40:54;3.78;;;2.95;;
23868;SDS011;12115;47.128;15.422;2022-07-23T14:43:21;3.58;;;3.17;;
23868;SDS011;12115;47.128;15.422;2022-07-23T14:45:49;5.00;;;3.20;;
23868;SDS011;12115;47.128;15.422;2022-07-23T14:48:16;3.47;;;3.17;;
23868;SDS011;12115;47.128;15.422;2022-07-23T14:50:43;3.97;;;3.03;;
23868;SDS011;12115;47.128;15.422;2022-07-23T14:53:11;3.70;;;3.20;;
23868;SDS011;12115;47.128;15.422;2022-07-23T14:55:38;3.92;;;3.03;;
23868;SDS011;12115;47.128;15.422;2022-07-23T14:58:05;5.57;;;3.20;;
23868;SDS011;12115;47.128;15.422;2022-07-23T15:00:33;3.45;;;3.15;;
23868;SDS011;12115;47.128;15.422;2022-07-23T15:03:00;3.50;;;3.20;;
23868;SDS011;12115;47.128;15.422;2022-07-23T15:05:27;4.60;;;3.15;;
23868;SDS011;12115;47.128;15.422;2022-07-23T15:07:55;3.47;;;3.28;;
23868;SDS011;12115;47.128;15.422;2022-07-23T15:10:22;3.67;;;3.38;;
23868;SDS011;12115;47.128;15.422;2022-07-23T15:12:50;5.95;;;3.55;;
23868;SDS011;12115;47.128;15.422;2022-07-23T15:15:17;3.83;;;3.53;;
23868;SDS011;12115;47.128;15.422;2022-07-23T15:17:44;3.40;;;3.10;;
23868;SDS011;12115;47.128;15.422;2022-07-23T15:20:11;5.30;;;3.30;;
23868;SDS011;12115;47.128;15.422;2022-07-23T15:22:58;3.30;;;3.00;;
23868;SDS011;12115;47.128;15.422;2022-07-23T15:25:25;4.00;;;3.00;;
23868;SDS011;12115;47.128;15.422;2022-07-23T15:27:53;3.80;;;3.50;;
23868;SDS011;12115;47.128;15.422;2022-07-23T15:30:20;3.78;;;3.47;;
23868;SDS011;12115;47.128;15.422;2022-07-23T15:32:48;4.05;;;3.25;;
23868;SDS011;12115;47.128;15.422;2022-07-23T15:35:15;4.18;;;3.40;;
23868;SDS011;12115;47.128;15.422;2022-07-23T15:37:42;3.38;;;3.13;;
23868;SDS011;12115;47.128;15.422;2022-07-23T15:40:11;3.42;;;3.13;;
23868;SDS011;12115;47.128;15.422;2022-07-23T15:42:39;3.65;;;3.30;;
23868;SDS011;12115;47.128;15.422;2022-07-23T15:45:06;3.75;;;3.45;;
23868;SDS011;12115;47.128;15.422;2022-07-23T15:47:36;4.43;;;3.55;;
23868;SDS011;12115;47.128;15.422;2022-07-23T15:50:03;3.70;;;3.40;;
23868;SDS011;12115;47.128;15.422;2022-07-23T15:52:31;3.65;;;3.35;;
23868;SDS011;12115;47.128;15.422;2022-07-23T15:54:59;3.72;;;3.28;;
23868;SDS011;12115;47.128;15.422;2022-07-23T15:57:26;4.25;;;3.40;;
23868;SDS011;12115;47.128;15.422;2022-07-23T15:59:53;3.70;;;3.40;;